createdAt,value
2019-04-07T00:04:52.363Z,12.06
2019-04-07T00:09:58.674Z,12.13
2019-04-07T00:15:05.950Z,12.04
2019-04-07T00:20:12.492Z,11.89
2019-04-07T00:25:18.368Z,11.92
2019-04-07T00:30:24.200Z,11.78
2019-04-07T00:35:32.594Z,11.70
2019-04-07T00:40:38.235Z,11.55
2019-04-07T00:45:44.074Z,11.34
2019-04-07T00:50:50.337Z,11.25
2019-04-07T00:55:56.284Z,11.09
2019-04-07T01:01:02.092Z,11.11
2019-04-07T01:06:07.845Z,11.16
2019-04-07T01:11:13.622Z,10.79
2019-04-07T01:16:19.898Z,10.84
2019-04-07T01:21:25.766Z,10.84
2019-04-07T01:26:31.882Z,10.60
2019-04-07T01:31:38.019Z,10.72
2019-04-07T01:36:45.501Z,10.78
2019-04-07T01:41:52.797Z,10.62
2019-04-07T01:47:06.267Z,10.75
2019-04-07T01:52:13.655Z,10.66
2019-04-07T01:57:26.801Z,10.94
2019-04-07T02:02:34.162Z,10.92
2019-04-07T02:07:56.641Z,10.78
2019-04-07T02:13:04.352Z,10.80
2019-04-07T02:18:14.825Z,11.03
2019-04-07T02:23:40.561Z,11.03
2019-04-07T02:28:59.990Z,11.05
2019-04-07T02:34:25.738Z,10.94
2019-04-07T02:39:33.239Z,10.27
2019-04-07T02:44:40.972Z,10.15
2019-04-07T02:49:48.692Z,10.17
2019-04-07T02:55:05.063Z,10.07
2019-04-07T03:00:16.005Z,9.71
2019-04-07T03:05:24.157Z,9.35
2019-04-07T03:10:40.712Z,9.24
2019-04-07T03:15:57.880Z,9.26
2019-04-07T03:21:24.738Z,8.94
2019-04-07T03:26:48.765Z,8.87
2019-04-07T03:32:10.306Z,9.03
2019-04-07T03:37:31.266Z,9.03
2019-04-07T03:42:43.611Z,8.85
2019-04-07T03:48:08.395Z,8.74
2019-04-07T03:53:15.979Z,8.76
2019-04-07T03:58:23.276Z,8.72
2019-04-07T04:03:46.900Z,8.72
2019-04-07T04:08:56.961Z,8.28
2019-04-07T04:14:11.092Z,8.59
2019-04-07T04:19:17.005Z,8.29
2019-04-07T04:24:23.023Z,8.67
2019-04-07T04:29:29.985Z,8.61
2019-04-07T04:34:36.742Z,8.50
2019-04-07T04:39:42.795Z,8.61
2019-04-07T04:44:48.909Z,8.78
2019-04-07T04:49:54.825Z,8.78
2019-04-07T04:55:01.899Z,8.54
2019-04-07T05:00:08.920Z,8.51
2019-04-07T05:05:14.782Z,8.29
2019-04-07T05:10:21.083Z,8.27
2019-04-07T05:15:27.552Z,8.24
2019-04-07T05:20:34.365Z,8.51
2019-04-07T05:25:40.525Z,8.42
2019-04-07T05:30:47.993Z,8.48
2019-04-07T05:35:55.749Z,8.45
2019-04-07T05:41:04.236Z,8.73
2019-04-07T05:46:09.908Z,8.73
2019-04-07T05:51:15.690Z,9.19
2019-04-07T05:56:21.454Z,9.11
2019-04-07T06:01:27.426Z,9.53
2019-04-07T06:06:33.240Z,9.85
2019-04-07T06:11:39.085Z,10.32
2019-04-07T06:16:45.186Z,10.40
2019-04-07T06:21:51.651Z,10.78
2019-04-07T06:26:58.732Z,11.01
2019-04-07T06:32:05.570Z,11.07
2019-04-07T06:37:12.273Z,11.42
2019-04-07T06:42:19.662Z,11.75
2019-04-07T06:47:32.035Z,12.05
2019-04-07T06:52:42.194Z,12.46
2019-04-07T06:57:52.640Z,12.42
2019-04-07T07:03:16.593Z,12.73
2019-04-07T07:08:45.726Z,13.19
2019-04-07T07:13:49.924Z,13.19
2019-04-07T07:18:58.172Z,13.33
2019-04-07T07:24:04.994Z,13.44
2019-04-07T07:29:13.237Z,13.82
2019-04-07T07:34:18.722Z,13.94
2019-04-07T07:39:25.125Z,14.13
2019-04-07T07:44:34.354Z,14.38
2019-04-07T07:49:40.925Z,14.77
2019-04-07T07:54:46.365Z,14.96
2019-04-07T07:59:52.371Z,15.06
2019-04-07T08:04:59.277Z,14.90
2019-04-07T08:10:09.904Z,15.06
2019-04-07T08:15:15.662Z,15.65
2019-04-07T08:20:22.047Z,15.78
2019-04-07T08:25:28.163Z,16.05
2019-04-07T08:30:33.958Z,16.20
2019-04-07T08:35:40.711Z,16.31
2019-04-07T08:40:46.835Z,16.56
2019-04-07T08:45:54.636Z,16.53
2019-04-07T08:51:01.218Z,16.86
2019-04-07T08:56:08.799Z,17.36
2019-04-07T09:01:17.358Z,16.92
2019-04-07T09:06:22.010Z,17.50
2019-04-07T09:11:29.267Z,17.29
2019-04-07T09:16:39.449Z,17.77
2019-04-07T09:21:51.690Z,17.95
2019-04-07T09:27:13.973Z,18.29
2019-04-07T09:32:30.109Z,18.39
2019-04-07T09:37:41.544Z,18.27
2019-04-07T09:43:01.405Z,17.87
2019-04-07T09:48:17.695Z,18.09
2019-04-07T09:53:37.081Z,18.33
2019-04-07T09:58:49.271Z,18.49
2019-04-07T10:03:56.726Z,18.76
2019-04-07T10:09:06.949Z,18.57
2019-04-07T10:14:21.767Z,18.30
2019-04-07T10:19:30.033Z,18.60
2019-04-07T10:24:40.434Z,18.58
2019-04-07T10:29:55.595Z,18.64
2019-04-07T10:35:05.864Z,18.81
2019-04-07T10:40:20.937Z,18.81
2019-04-07T10:45:41.750Z,18.81
2019-04-07T10:50:58.990Z,18.75
2019-04-07T10:56:23.034Z,18.98
2019-04-07T11:01:36.359Z,18.68
2019-04-07T11:06:43.990Z,19.10
2019-04-07T11:11:57.553Z,18.75
2019-04-07T11:17:08.214Z,18.96
2019-04-07T11:22:15.564Z,19.93
2019-04-07T11:27:38.377Z,20.40
2019-04-07T11:32:52.210Z,20.47
2019-04-07T11:38:09.234Z,20.49
2019-04-07T11:49:15.011Z,20.28
2019-04-07T11:54:22.357Z,20.31
2019-04-07T11:59:32.971Z,19.93
2019-04-07T12:04:41.749Z,20.11
2019-04-07T12:10:05.160Z,19.36
2019-04-07T12:15:13.103Z,19.83
2019-04-07T12:20:38.510Z,19.51
2019-04-07T12:25:46.125Z,20.68
2019-04-07T12:31:10.676Z,20.22
2019-04-07T12:36:36.089Z,20.15
2019-04-07T12:41:46.633Z,20.46
2019-04-07T12:47:09.237Z,20.43
2019-04-07T12:52:17.369Z,21.05
2019-04-07T12:57:39.562Z,20.61
2019-04-07T13:02:56.314Z,20.77
2019-04-07T13:08:07.053Z,20.31
2019-04-07T13:13:18.096Z,21.04
2019-04-07T13:18:36.241Z,20.48
2019-04-07T13:23:57.500Z,21.10
2019-04-07T13:29:14.621Z,20.71
2019-04-07T13:34:22.285Z,20.36
2019-04-07T13:39:48.371Z,20.10
2019-04-07T13:45:03.879Z,20.70
2019-04-07T13:50:19.169Z,20.68
2019-04-07T13:55:27.399Z,20.49
2019-04-07T14:00:52.022Z,20.52
2019-04-07T14:06:14.296Z,20.83
2019-04-07T14:11:35.064Z,20.36
2019-04-07T14:16:48.698Z,20.61
2019-04-07T14:22:14.427Z,20.64
2019-04-07T14:27:29.777Z,20.50
2019-04-07T14:32:42.803Z,20.87
2019-04-07T14:38:03.805Z,20.74
2019-04-07T14:43:23.563Z,20.28
2019-04-07T14:48:37.626Z,20.75
2019-04-07T14:53:51.375Z,20.14
2019-04-07T14:59:15.200Z,20.02
2019-04-07T15:04:22.652Z,20.38
2019-04-07T15:09:46.981Z,20.19
2019-04-07T15:14:52.904Z,20.26
2019-04-07T15:19:58.649Z,20.25
2019-04-07T15:25:07.176Z,20.34
2019-04-07T15:30:15.343Z,19.91
2019-04-07T15:35:20.200Z,20.12
2019-04-07T15:40:28.156Z,20.24
2019-04-07T15:45:34.188Z,20.21
2019-04-07T15:50:40.107Z,20.13
2019-04-07T15:55:56.674Z,19.65
2019-04-07T16:00:54.969Z,20.17
2019-04-07T16:06:00.806Z,19.80
2019-04-07T16:11:06.951Z,19.50
2019-04-07T16:16:13.481Z,19.32
2019-04-07T16:21:19.616Z,19.31
2019-04-07T16:26:26.121Z,19.62
2019-04-07T16:31:32.278Z,19.49
2019-04-07T16:36:38.474Z,19.70
2019-04-07T16:41:45.993Z,18.30
2019-04-07T16:46:54.863Z,18.15
2019-04-07T16:52:01.232Z,17.88
2019-04-07T16:57:09.369Z,17.52
2019-04-07T17:02:17.652Z,17.41
2019-04-07T17:07:23.369Z,17.24
2019-04-07T17:12:30.226Z,17.18
2019-04-07T17:17:36.887Z,16.94
2019-04-07T17:22:46.019Z,16.87
2019-04-07T17:27:50.876Z,16.59
2019-04-07T17:32:57.164Z,16.55
2019-04-07T17:38:06.673Z,16.38
2019-04-07T17:43:40.533Z,16.35
2019-04-07T17:48:53.091Z,16.21
2019-04-07T17:53:55.113Z,16.08
2019-04-07T17:59:19.178Z,15.96
2019-04-07T18:04:30.562Z,15.80
2019-04-07T18:09:47.967Z,15.63
2019-04-07T18:15:12.015Z,15.58
2019-04-07T18:20:28.373Z,15.34
2019-04-07T18:25:53.226Z,15.35
2019-04-07T18:31:04.332Z,15.22
2019-04-07T18:36:27.618Z,15.01
2019-04-07T18:41:50.536Z,14.86
2019-04-07T18:47:04.729Z,14.81
2019-04-07T18:52:28.865Z,14.67
2019-04-07T18:57:42.612Z,14.44
2019-04-07T19:02:50.482Z,14.31
2019-04-07T19:08:04.024Z,14.07
2019-04-07T19:13:26.970Z,14.03
2019-04-07T19:18:49.108Z,13.84
2019-04-07T19:24:00.055Z,13.46
2019-04-07T19:29:15.188Z,13.56
2019-04-07T19:34:30.687Z,13.13
2019-04-07T19:39:53.552Z,13.02
2019-04-07T19:45:00.759Z,13.00
2019-04-07T19:50:12.217Z,12.73
2019-04-07T19:55:34.634Z,12.75
2019-04-07T20:00:51.651Z,12.60
2019-04-07T20:06:11.343Z,12.15
2019-04-07T20:11:21.109Z,12.21
2019-04-07T20:16:32.683Z,12.32
2019-04-07T20:21:49.368Z,12.11
2019-04-07T20:27:01.116Z,12.10
2019-04-07T20:32:08.575Z,12.08
2019-04-07T20:37:25.308Z,11.94
2019-04-07T20:42:32.171Z,12.07
2019-04-07T20:47:40.334Z,11.90
2019-04-07T20:52:48.136Z,11.80
2019-04-07T20:58:11.586Z,12.10
2019-04-07T21:03:25.139Z,11.97
2019-04-07T21:08:37.708Z,11.75
2019-04-07T21:13:47.133Z,11.89
2019-04-07T21:19:11.299Z,11.98
2019-04-07T21:24:21.625Z,11.98
2019-04-07T21:29:29.072Z,11.96
2019-04-07T21:34:39.146Z,11.87
2019-04-07T21:40:06.986Z,11.84
2019-04-07T21:45:33.019Z,11.68
2019-04-07T21:50:33.705Z,11.48
2019-04-07T21:55:47.682Z,11.44
2019-04-07T22:01:12.184Z,11.36
2019-04-07T22:06:37.607Z,10.92
2019-04-07T22:11:44.705Z,10.83
2019-04-07T22:16:51.234Z,10.77
2019-04-07T22:21:57.208Z,10.20
2019-04-07T22:27:04.575Z,10.51
2019-04-07T22:32:10.540Z,10.64
2019-04-07T22:37:18.696Z,10.40
2019-04-07T22:42:24.347Z,9.95
2019-04-07T22:47:30.415Z,9.97
2019-04-07T22:52:36.203Z,9.84
2019-04-07T22:57:42.832Z,9.77
2019-04-07T23:02:48.957Z,9.79
2019-04-07T23:07:54.664Z,9.51
2019-04-07T23:13:01.464Z,9.41
2019-04-07T23:18:08.585Z,9.22
2019-04-07T23:23:14.517Z,9.40
2019-04-07T23:28:20.893Z,9.12
2019-04-07T23:33:27.609Z,9.33
2019-04-07T23:38:34.739Z,9.46
2019-04-07T23:43:40.690Z,9.75
2019-04-07T23:48:46.455Z,9.66
2019-04-07T23:54:11.305Z,9.75
2019-04-07T23:59:17.461Z,9.53
